Wednesday, January 17, 2018, 6:26 AM EST
Back to Local

KPQI, Presque Isle

Location: Presque Isle, ME, United States Lat: 46.683
Local Time: 6:26 AM EST (11:26 GMT) Lon: -68.05
Time Zone: US/Eastern Elev: 534 ft

Show me the last for .
Show Decoded

2018-01-17 05:56 METAR KPQI 171056Z AUTO 00000KT 5SM -SN BR SCT040 BKN050 OVC060 M14/M16 A3037
                 RMK AO2 SNB14 SLP332 P0000 T11391156 FZRANO =
2018-01-17 04:56 METAR KPQI 170956Z AUTO 00000KT 10SM OVC032 M15/M17 A3037 RMK AO2 SLP333
                 T11501172 FZRANO =
2018-01-17 03:56 METAR KPQI 170856Z AUTO 00000KT 10SM OVC034 M16/M18 A3037 RMK AO2 SLP332
                 T11561178 58003 FZRANO =
2018-01-17 02:56 METAR KPQI 170756Z AUTO 00000KT 10SM OVC034 M17/M19 A3038 RMK AO2 SLP337
                 T11671189 FZRANO =
2018-01-17 01:56 METAR KPQI 170656Z AUTO 00000KT 10SM BKN034 OVC110 M18/M20 A3038 RMK AO2 SLP337
                 T11781200 FZRANO =
2018-01-17 00:56 METAR KPQI 170556Z AUTO 00000KT 10SM BKN110 M18/M21 A3038 RMK AO2 SLP337 60000
                 T11831206 11178 21200 56007 FZRANO =
2018-01-16 23:56 METAR KPQI 170456Z AUTO 00000KT 10SM CLR M19/M21 A3038 RMK AO2 SLP337 T11891211
                 410891200 FZRANO =
2018-01-16 22:56 METAR KPQI 170356Z AUTO 00000KT 10SM CLR M19/M21 A3039 RMK AO2 SNE24 SLP340
                 P0000 T11891211 FZRANO =
2018-01-16 21:56 METAR KPQI 170256Z AUTO 23003KT 9SM -SN OVC032 M19/M21 A3040 RMK AO2 SNB08
                 SLP344 P0000 60000 T11891211 58009 FZRANO =
2018-01-16 20:56 METAR KPQI 170156Z AUTO 00000KT 10SM CLR M19/M22 A3041 RMK AO2 SNB09E49 SLP349
                 P0000 T11941217 FZRANO =
2018-01-16 20:41 METAR KPQI 170141Z AUTO 25003KT 9SM -SN SCT028 M20/M22 A3041 RMK AO2 SNB09 P0000
                 FZRANO =
2018-01-16 19:56 METAR KPQI 170056Z AUTO 00000KT 10SM BKN028 M19/M22 A3042 RMK AO2 SLP353
                 T11941217 FZRANO =
2018-01-16 19:48 METAR KPQI 170048Z AUTO 00000KT 10SM BKN028 M19/M22 A3042 RMK AO2 FZRANO =
2018-01-16 18:56 METAR KPQI 162356Z AUTO 00000KT 10SM CLR M18/M21 A3043 RMK AO2 SLP354 60000
                 T11781206 11089 21178 53004 FZRANO =
2018-01-16 17:56 METAR KPQI 162256Z AUTO 00000KT 10SM CLR M18/M20 A3042 RMK AO2 SLP351 T11781200
                 FZRANO TSNO =
2018-01-16 16:56 METAR KPQI 162156Z AUTO 00000KT 10SM CLR M16/M18 A3042 RMK AO2 SLP349 T11561183
                 FZRANO =
2018-01-16 15:56 METAR KPQI 162056Z AUTO 00000KT 10SM SCT018 M11/M16 A3042 RMK AO2 SNE32 SLP348
                 P0000 60000 T11061156 51002 FZRANO =
2018-01-16 15:52 METAR KPQI 162052Z AUTO 00000KT 10SM SCT018 M11/M16 A3042 RMK AO2 SNE32 P0000
                 FZRANO =
2018-01-16 14:56 METAR KPQI 161956Z AUTO 00000KT 9SM -SN OVC016 M11/M16 A3041 RMK AO2 SLP347
                 P0000 T11111161 FZRANO =
2018-01-16 13:56 METAR KPQI 161856Z AUTO 06003KT 9SM -SN OVC020 M10/M15 A3041 RMK AO2 SLP346
                 P0000 T11001150 FZRANO =
2018-01-16 12:56 METAR KPQI 161756Z AUTO 04003KT 6SM -SN OVC016 M11/M16 A3043 RMK AO2 SLP351
                 P0000 60000 T11061156 11106 21167 56023 FZRANO =
2018-01-16 11:56 METAR KPQI 161656Z AUTO 01004KT 9SM -SN OVC018 M13/M17 A3044 RMK AO2 SLP357
                 P0000 T11281167 FZRANO =
2018-01-16 10:56 METAR KPQI 161556Z AUTO 35004KT 9SM -SN OVC022 M13/M17 A3046 RMK AO2 SLP363
                 P0000 T11331172 FZRANO =
2018-01-16 09:56 METAR KPQI 161456Z AUTO 35004KT 9SM -SN OVC020 M14/M18 A3049 RMK AO2 SLP375
                 P0000 60000 T11441178 56009 FZRANO =
2018-01-16 08:56 METAR KPQI 161356Z AUTO 35004KT 8SM -SN OVC018 M16/M19 A3050 RMK AO2 SLP377
                 P0000 T11561189 FZRANO =
2018-01-16 07:56 METAR KPQI 161256Z AUTO 01004KT 6SM -SN OVC016 M16/M19 A3050 RMK AO2 SLP376
                 P0000 T11611189 FZRANO =
2018-01-16 06:56 METAR KPQI 161156Z AUTO 27004KT 7SM -SN OVC016 M17/M19 A3052 RMK AO2 SLP384
                 P0000 60000 T11671189 11167 21172 55002 FZRANO =

Support USWX by starting your Amazon purchase here.